Decoded Metar for LZPP (PIESTANY in SLOVAKIA) (IATA:PZY) | Meteo·Mobile Aviation Weather
aviador You're here:

LZPP Decoded Metar

PIESTANY in SLOVAKIA
Report Time2019-09-23 09:00:00
UTC Time2019-09-23 09:31:44
Flight Rules vfr VFR
Wind090° at 08 kt
W.Decomp.*RWY 01: 1.8 kt HW 7.8 kt RCW
Visibility9999 m
Phenomena:N/A
Clouds:Broken 048 Hf
Expected CloudBase > 3,600 ft AGL from Temp-Dew spread
Ceiling4,800 ft
Temp18°C (ISA +4)
Dew Point09°C (56% RH)
AAT14.9°C
QNH1014 hPa
Density Alt1,125 ft
Elevation528 ft
Report Wrong Elevation
Raw Report
LZPP 230900Z 09008KT 060V120 9999 BKN048 18/09 Q1014=

Extra information for LZPP:More info

Metar Taf Metar & Taf Last 4 Metars F.Rules Stats Wind Profile Meteogram Temp Stats Airport Information Weather charts Add Link Nearby VenuesMetar ALERT Operation Metar Decoded Social comments